Big Springs, Nebraska
Current Conditions -  °F | °C
As of 3:35 PM on Friday 19 Dec 2014 (Local Time) from KOGA Reporting Station
Clear Clear  
Wind Chill: 26°   Ceiling: Unl
Heat Index: 34°   Visibility: 10mi
Dew Point: 29°   Wind: 9mph
Humidity: 81%   Direction: 260°W
Pressure: 30.01"   Gusts: NA
Location:  41.06°N, 102.07°W
Report Text: KOGA 192235Z AUTO 26008KT 10SM CLR 01/M02 A3001 RMK AO2 T00101019
Loading
Personal Weather Stations






























Interactive Weather Map New forecast layout! Learn more

10-Day Weather Forecast

Advertisements
Track Severe Weather on mobile